sensor_id;sensor_type;location;lat;lon;timestamp;pressure;altitude;pressure_sealevel;temperature;humidity
44765;BME280;30484;52.382;5.260;2023-03-19T00:01:03;101101.13;;;15.47;100.00
44765;BME280;30484;52.382;5.260;2023-03-19T00:03:32;101105.88;;;15.84;100.00
44765;BME280;30484;52.382;5.260;2023-03-19T00:06:03;101102.16;;;15.59;100.00
44765;BME280;30484;52.382;5.260;2023-03-19T00:08:31;101087.94;;;14.88;100.00
44765;BME280;30484;52.382;5.260;2023-03-19T00:11:06;101098.53;;;15.18;100.00
44765;BME280;30484;52.382;5.260;2023-03-19T00:13:35;101105.69;;;15.60;100.00
44765;BME280;30484;52.382;5.260;2023-03-19T00:16:04;101099.66;;;15.69;100.00
44765;BME280;30484;52.382;5.260;2023-03-19T00:18:33;101107.66;;;15.70;100.00
44765;BME280;30484;52.382;5.260;2023-03-19T00:21:03;101116.09;;;15.51;100.00
44765;BME280;30484;52.382;5.260;2023-03-19T00:23:31;101115.78;;;15.56;100.00
44765;BME280;30484;52.382;5.260;2023-03-19T00:26:00;101117.28;;;15.47;100.00
44765;BME280;30484;52.382;5.260;2023-03-19T00:28:28;101112.44;;;15.80;100.00
44765;BME280;30484;52.382;5.260;2023-03-19T00:30:57;101113.94;;;15.16;100.00
44765;BME280;30484;52.382;5.260;2023-03-19T00:33:33;101112.03;;;15.31;100.00
44765;BME280;30484;52.382;5.260;2023-03-19T00:36:04;101117.00;;;15.10;100.00
44765;BME280;30484;52.382;5.260;2023-03-19T00:38:33;101119.22;;;15.45;100.00
44765;BME280;30484;52.382;5.260;2023-03-19T00:41:03;101117.41;;;15.04;100.00
44765;BME280;30484;52.382;5.260;2023-03-19T00:43:32;101106.28;;;15.50;100.00
44765;BME280;30484;52.382;5.260;2023-03-19T00:46:01;101116.00;;;15.80;100.00
44765;BME280;30484;52.382;5.260;2023-03-19T00:48:29;101121.38;;;15.53;100.00
44765;BME280;30484;52.382;5.260;2023-03-19T00:51:03;101120.31;;;15.83;100.00
44765;BME280;30484;52.382;5.260;2023-03-19T00:53:32;101119.41;;;15.69;100.00
44765;BME280;30484;52.382;5.260;2023-03-19T00:56:00;101137.75;;;15.50;100.00
44765;BME280;30484;52.382;5.260;2023-03-19T00:58:28;101127.88;;;15.36;100.00
44765;BME280;30484;52.382;5.260;2023-03-19T01:00:57;101128.72;;;15.51;100.00
44765;BME280;30484;52.382;5.260;2023-03-19T01:03:25;101123.22;;;15.25;100.00
44765;BME280;30484;52.382;5.260;2023-03-19T01:05:53;101122.44;;;15.23;100.00
44765;BME280;30484;52.382;5.260;2023-03-19T01:08:23;101133.03;;;15.12;100.00
44765;BME280;30484;52.382;5.260;2023-03-19T01:10:52;101124.97;;;15.12;100.00
44765;BME280;30484;52.382;5.260;2023-03-19T01:13:20;101133.56;;;15.31;100.00
44765;BME280;30484;52.382;5.260;2023-03-19T01:15:51;101116.41;;;15.47;100.00
44765;BME280;30484;52.382;5.260;2023-03-19T01:18:20;101131.66;;;15.88;100.00
44765;BME280;30484;52.382;5.260;2023-03-19T01:20:49;101128.22;;;15.71;100.00
44765;BME280;30484;52.382;5.260;2023-03-19T01:23:17;101111.63;;;15.65;100.00
44765;BME280;30484;52.382;5.260;2023-03-19T01:25:47;101122.69;;;15.60;100.00
44765;BME280;30484;52.382;5.260;2023-03-19T01:28:15;101126.63;;;15.42;100.00
44765;BME280;30484;52.382;5.260;2023-03-19T01:30:44;101122.91;;;15.84;100.00
44765;BME280;30484;52.382;5.260;2023-03-19T01:33:12;101125.91;;;15.80;100.00
44765;BME280;30484;52.382;5.260;2023-03-19T01:35:41;101126.03;;;15.51;100.00
44765;BME280;30484;52.382;5.260;2023-03-19T01:38:12;101121.31;;;15.67;100.00
44765;BME280;30484;52.382;5.260;2023-03-19T01:40:44;101131.72;;;15.46;100.00
44765;BME280;30484;52.382;5.260;2023-03-19T01:43:20;101125.09;;;15.38;100.00
44765;BME280;30484;52.382;5.260;2023-03-19T01:45:53;101135.78;;;15.39;100.00
44765;BME280;30484;52.382;5.260;2023-03-19T01:48:29;101125.59;;;15.57;100.00
44765;BME280;30484;52.382;5.260;2023-03-19T01:51:00;101128.81;;;15.49;100.00
44765;BME280;30484;52.382;5.260;2023-03-19T01:53:31;101127.03;;;15.63;100.00
44765;BME280;30484;52.382;5.260;2023-03-19T01:56:07;101134.91;;;15.39;100.00
44765;BME280;30484;52.382;5.260;2023-03-19T01:58:39;101126.59;;;15.14;100.00
44765;BME280;30484;52.382;5.260;2023-03-19T02:01:09;101130.88;;;15.59;100.00
44765;BME280;30484;52.382;5.260;2023-03-19T02:03:38;101126.94;;;15.77;100.00
44765;BME280;30484;52.382;5.260;2023-03-19T02:06:08;101126.88;;;15.79;100.00
44765;BME280;30484;52.382;5.260;2023-03-19T02:08:39;101130.88;;;15.59;100.00
44765;BME280;30484;52.382;5.260;2023-03-19T02:11:08;101124.69;;;15.16;100.00
44765;BME280;30484;52.382;5.260;2023-03-19T02:13:36;101139.09;;;15.15;100.00
44765;BME280;30484;52.382;5.260;2023-03-19T02:16:07;101128.19;;;15.31;100.00
44765;BME280;30484;52.382;5.260;2023-03-19T02:18:36;101128.28;;;15.57;100.00
44765;BME280;30484;52.382;5.260;2023-03-19T02:21:07;101125.41;;;15.33;100.00
44765;BME280;30484;52.382;5.260;2023-03-19T02:23:42;101128.28;;;15.30;100.00
44765;BME280;30484;52.382;5.260;2023-03-19T02:26:15;101127.66;;;15.12;100.00
44765;BME280;30484;52.382;5.260;2023-03-19T02:28:46;101144.03;;;15.36;100.00
44765;BME280;30484;52.382;5.260;2023-03-19T02:31:16;101140.94;;;15.15;100.00
44765;BME280;30484;52.382;5.260;2023-03-19T02:33:57;101154.03;;;14.92;100.00
44765;BME280;30484;52.382;5.260;2023-03-19T02:36:30;101152.75;;;15.12;100.00
44765;BME280;30484;52.382;5.260;2023-03-19T02:39:02;101150.97;;;14.98;100.00
44765;BME280;30484;52.382;5.260;2023-03-19T02:41:33;101148.66;;;15.34;100.00
44765;BME280;30484;52.382;5.260;2023-03-19T02:44:04;101154.31;;;15.44;100.00
44765;BME280;30484;52.382;5.260;2023-03-19T02:46:33;101148.88;;;15.31;100.00
44765;BME280;30484;52.382;5.260;2023-03-19T02:49:02;101152.84;;;15.52;100.00
44765;BME280;30484;52.382;5.260;2023-03-19T02:51:31;101161.91;;;14.95;100.00
44765;BME280;30484;52.382;5.260;2023-03-19T02:54:00;101162.13;;;15.61;100.00
44765;BME280;30484;52.382;5.260;2023-03-19T02:56:29;101162.13;;;15.61;100.00
44765;BME280;30484;52.382;5.260;2023-03-19T02:58:59;101155.53;;;15.25;100.00
44765;BME280;30484;52.382;5.260;2023-03-19T03:01:27;101164.44;;;15.26;100.00
44765;BME280;30484;52.382;5.260;2023-03-19T03:03:56;101159.28;;;15.50;100.00
44765;BME280;30484;52.382;5.260;2023-03-19T03:06:24;101157.56;;;15.49;100.00
44765;BME280;30484;52.382;5.260;2023-03-19T03:08:52;101167.06;;;15.54;100.00
44765;BME280;30484;52.382;5.260;2023-03-19T03:11:21;101159.81;;;15.42;100.00
44765;BME280;30484;52.382;5.260;2023-03-19T03:13:51;101162.13;;;15.61;100.00
44765;BME280;30484;52.382;5.260;2023-03-19T03:16:20;101159.69;;;15.44;100.00
44765;BME280;30484;52.382;5.260;2023-03-19T03:18:49;101157.75;;;15.46;100.00
44765;BME280;30484;52.382;5.260;2023-03-19T03:21:17;101168.75;;;15.43;100.00
44765;BME280;30484;52.382;5.260;2023-03-19T03:23:47;101163.34;;;15.43;100.00
44765;BME280;30484;52.382;5.260;2023-03-19T03:26:16;101158.97;;;15.27;100.00
44765;BME280;30484;52.382;5.260;2023-03-19T03:28:44;101161.56;;;15.29;100.00
44765;BME280;30484;52.382;5.260;2023-03-19T03:31:13;101171.53;;;14.99;100.00
44765;BME280;30484;52.382;5.260;2023-03-19T03:33:43;101165.34;;;15.12;100.00
44765;BME280;30484;52.382;5.260;2023-03-19T03:36:11;101178.16;;;14.79;100.00
44765;BME280;30484;52.382;5.260;2023-03-19T03:38:40;101170.94;;;14.80;100.00
44765;BME280;30484;52.382;5.260;2023-03-19T03:41:08;101172.81;;;14.35;100.00
44765;BME280;30484;52.382;5.260;2023-03-19T03:43:37;101164.19;;;14.44;100.00
44765;BME280;30484;52.382;5.260;2023-03-19T03:46:05;101161.88;;;14.52;100.00
44765;BME280;30484;52.382;5.260;2023-03-19T03:48:34;101160.06;;;14.53;100.00
44765;BME280;30484;52.382;5.260;2023-03-19T03:51:05;101174.84;;;14.45;100.00
44765;BME280;30484;52.382;5.260;2023-03-19T03:53:33;101183.53;;;14.20;100.00
44765;BME280;30484;52.382;5.260;2023-03-19T03:56:02;101180.75;;;14.22;100.00
44765;BME280;30484;52.382;5.260;2023-03-19T03:58:30;101183.50;;;13.75;100.00
44765;BME280;30484;52.382;5.260;2023-03-19T04:00:59;101180.72;;;14.07;100.00
44765;BME280;30484;52.382;5.260;2023-03-19T04:03:27;101181.75;;;14.05;100.00
44765;BME280;30484;52.382;5.260;2023-03-19T04:05:55;101172.78;;;14.20;100.00
44765;BME280;30484;52.382;5.260;2023-03-19T04:08:25;101175.25;;;14.09;100.00
44765;BME280;30484;52.382;5.260;2023-03-19T04:10:54;101170.47;;;14.14;100.00
44765;BME280;30484;52.382;5.260;2023-03-19T04:13:22;101179.63;;;13.95;100.00
44765;BME280;30484;52.382;5.260;2023-03-19T04:15:51;101169.38;;;14.02;100.00
44765;BME280;30484;52.382;5.260;2023-03-19T04:18:20;101184.66;;;14.16;100.00
44765;BME280;30484;52.382;5.260;2023-03-19T04:20:49;101173.16;;;14.14;100.00
44765;BME280;30484;52.382;5.260;2023-03-19T04:23:17;101168.50;;;14.02;100.00
44765;BME280;30484;52.382;5.260;2023-03-19T04:25:47;101167.38;;;14.06;100.00
44765;BME280;30484;52.382;5.260;2023-03-19T04:28:15;101157.56;;;14.05;100.00
44765;BME280;30484;52.382;5.260;2023-03-19T04:30:44;101177.19;;;14.07;100.00
44765;BME280;30484;52.382;5.260;2023-03-19T04:33:12;101168.69;;;13.98;100.00
44765;BME280;30484;52.382;5.260;2023-03-19T04:35:40;101166.53;;;13.89;100.00
44765;BME280;30484;52.382;5.260;2023-03-19T04:38:09;101164.41;;;13.80;100.00
44765;BME280;30484;52.382;5.260;2023-03-19T04:40:37;101171.34;;;13.84;100.00
44765;BME280;30484;52.382;5.260;2023-03-19T04:43:07;101183.41;;;13.45;100.00
44765;BME280;30484;52.382;5.260;2023-03-19T04:45:35;101174.81;;;13.70;100.00
44765;BME280;30484;52.382;5.260;2023-03-19T04:48:04;101171.19;;;13.71;100.00
44765;BME280;30484;52.382;5.260;2023-03-19T04:50:33;101180.03;;;13.25;100.00
44765;BME280;30484;52.382;5.260;2023-03-19T04:53:01;101187.28;;;13.07;100.00
44765;BME280;30484;52.382;5.260;2023-03-19T04:55:30;101187.22;;;13.41;100.00
44765;BME280;30484;52.382;5.260;2023-03-19T04:57:58;101178.94;;;13.45;100.00
44765;BME280;30484;52.382;5.260;2023-03-19T05:00:29;101188.13;;;13.08;100.00
44765;BME280;30484;52.382;5.260;2023-03-19T05:02:58;101202.75;;;13.36;100.00
44765;BME280;30484;52.382;5.260;2023-03-19T05:05:26;101202.22;;;13.45;100.00
44765;BME280;30484;52.382;5.260;2023-03-19T05:07:55;101199.59;;;13.43;100.00
44765;BME280;30484;52.382;5.260;2023-03-19T05:10:24;101205.50;;;13.50;100.00
44765;BME280;30484;52.382;5.260;2023-03-19T05:12:52;101206.91;;;13.41;100.00
44765;BME280;30484;52.382;5.260;2023-03-19T05:15:21;101205.16;;;13.40;100.00
44765;BME280;30484;52.382;5.260;2023-03-19T05:17:51;101213.47;;;13.36;100.00
44765;BME280;30484;52.382;5.260;2023-03-19T05:20:19;101204.97;;;13.43;100.00
44765;BME280;30484;52.382;5.260;2023-03-19T05:22:48;101205.69;;;13.47;100.00
44765;BME280;30484;52.382;5.260;2023-03-19T05:25:16;101216.72;;;13.25;100.00
44765;BME280;30484;52.382;5.260;2023-03-19T05:27:45;101229.31;;;13.40;100.00
44765;BME280;30484;52.382;5.260;2023-03-19T05:30:14;101223.09;;;13.06;100.00
44765;BME280;30484;52.382;5.260;2023-03-19T05:32:44;101219.25;;;12.78;100.00
44765;BME280;30484;52.382;5.260;2023-03-19T05:35:14;101230.56;;;13.17;100.00
44765;BME280;30484;52.382;5.260;2023-03-19T05:37:43;101229.16;;;12.94;100.00
44765;BME280;30484;52.382;5.260;2023-03-19T05:40:12;101231.25;;;13.21;100.00
44765;BME280;30484;52.382;5.260;2023-03-19T05:42:40;101224.03;;;13.55;100.00
44765;BME280;30484;52.382;5.260;2023-03-19T05:45:10;101234.84;;;13.37;100.00
44765;BME280;30484;52.382;5.260;2023-03-19T05:47:38;101237.44;;;13.05;100.00
44765;BME280;30484;52.382;5.260;2023-03-19T05:50:08;101240.91;;;12.91;100.00
44765;BME280;30484;52.382;5.260;2023-03-19T05:52:39;101253.16;;;13.13;100.00
44765;BME280;30484;52.382;5.260;2023-03-19T05:55:08;101259.25;;;13.33;100.00
44765;BME280;30484;52.382;5.260;2023-03-19T05:57:37;101251.06;;;13.52;100.00
44765;BME280;30484;52.382;5.260;2023-03-19T06:00:07;101256.38;;;13.20;100.00
44765;BME280;30484;52.382;5.260;2023-03-19T06:02:36;101269.16;;;13.15;100.00
44765;BME280;30484;52.382;5.260;2023-03-19T06:05:06;101259.72;;;13.57;100.00
44765;BME280;30484;52.382;5.260;2023-03-19T06:07:35;101269.75;;;13.37;100.00
44765;BME280;30484;52.382;5.260;2023-03-19T06:10:08;101268.72;;;13.40;100.00
44765;BME280;30484;52.382;5.260;2023-03-19T06:12:37;101276.19;;;13.33;100.00
44765;BME280;30484;52.382;5.260;2023-03-19T06:15:07;101280.44;;;13.04;100.00
44765;BME280;30484;52.382;5.260;2023-03-19T06:17:36;101281.63;;;12.47;100.00
44765;BME280;30484;52.382;5.260;2023-03-19T06:20:05;101282.91;;;12.91;100.00
44765;BME280;30484;52.382;5.260;2023-03-19T06:22:34;101282.31;;;13.19;100.00
44765;BME280;30484;52.382;5.260;2023-03-19T06:25:03;101278.25;;;13.45;100.00
44765;BME280;30484;52.382;5.260;2023-03-19T06:27:34;101293.56;;;13.59;100.00
44765;BME280;30484;52.382;5.260;2023-03-19T06:30:03;101289.00;;;13.61;100.00
44765;BME280;30484;52.382;5.260;2023-03-19T06:32:32;101291.59;;;13.29;100.00
44765;BME280;30484;52.382;5.260;2023-03-19T06:35:01;101286.06;;;13.33;100.00
44765;BME280;30484;52.382;5.260;2023-03-19T06:37:30;101290.28;;;13.38;100.00
44765;BME280;30484;52.382;5.260;2023-03-19T06:39:59;101297.38;;;13.22;100.00
44765;BME280;30484;52.382;5.260;2023-03-19T06:42:27;101299.28;;;13.20;100.00
44765;BME280;30484;52.382;5.260;2023-03-19T06:44:58;101300.50;;;13.14;100.00
44765;BME280;30484;52.382;5.260;2023-03-19T06:47:27;101304.31;;;13.26;100.00
44765;BME280;30484;52.382;5.260;2023-03-19T06:49:56;101311.47;;;13.43;100.00
44765;BME280;30484;52.382;5.260;2023-03-19T06:52:25;101320.41;;;13.26;100.00
44765;BME280;30484;52.382;5.260;2023-03-19T06:54:54;101318.97;;;13.70;100.00
44765;BME280;30484;52.382;5.260;2023-03-19T06:57:23;101323.41;;;13.37;100.00
44765;BME280;30484;52.382;5.260;2023-03-19T06:59:51;101331.84;;;13.29;100.00
44765;BME280;30484;52.382;5.260;2023-03-19T07:02:21;101325.44;;;13.50;100.00
44765;BME280;30484;52.382;5.260;2023-03-19T07:04:50;101339.72;;;12.99;100.00
44765;BME280;30484;52.382;5.260;2023-03-19T07:07:19;101339.06;;;13.62;100.00
44765;BME280;30484;52.382;5.260;2023-03-19T07:09:48;101347.44;;;13.72;100.00
44765;BME280;30484;52.382;5.260;2023-03-19T07:12:19;101341.78;;;13.27;100.00
44765;BME280;30484;52.382;5.260;2023-03-19T07:14:47;101357.44;;;13.19;100.00
44765;BME280;30484;52.382;5.260;2023-03-19T07:17:16;101363.25;;;13.45;100.00
44765;BME280;30484;52.382;5.260;2023-03-19T07:19:47;101358.41;;;13.18;100.00
44765;BME280;30484;52.382;5.260;2023-03-19T07:22:15;101365.81;;;13.13;100.00
44765;BME280;30484;52.382;5.260;2023-03-19T07:24:44;101360.78;;;12.89;100.00
44765;BME280;30484;52.382;5.260;2023-03-19T07:27:12;101368.19;;;13.02;100.00
44765;BME280;30484;52.382;5.260;2023-03-19T07:29:41;101383.56;;;13.16;100.00
44765;BME280;30484;52.382;5.260;2023-03-19T07:32:10;101371.72;;;13.37;100.00
44765;BME280;30484;52.382;5.260;2023-03-19T07:34:39;101379.72;;;13.55;100.00
44765;BME280;30484;52.382;5.260;2023-03-19T07:37:10;101369.69;;;13.58;100.00
44765;BME280;30484;52.382;5.260;2023-03-19T07:39:38;101381.06;;;13.79;100.00
44765;BME280;30484;52.382;5.260;2023-03-19T07:42:07;101372.53;;;13.04;100.00
44765;BME280;30484;52.382;5.260;2023-03-19T07:44:36;101372.63;;;13.54;100.00
44765;BME280;30484;52.382;5.260;2023-03-19T07:47:05;101378.78;;;13.56;100.00
44765;BME280;30484;52.382;5.260;2023-03-19T07:49:48;101385.03;;;13.72;100.00
44765;BME280;30484;52.382;5.260;2023-03-19T07:52:19;101377.69;;;13.92;100.00
44765;BME280;30484;52.382;5.260;2023-03-19T07:54:48;101396.38;;;13.61;100.00
44765;BME280;30484;52.382;5.260;2023-03-19T07:57:18;101385.66;;;13.93;100.00
44765;BME280;30484;52.382;5.260;2023-03-19T07:59:47;101397.25;;;13.78;100.00
44765;BME280;30484;52.382;5.260;2023-03-19T08:02:16;101395.19;;;13.83;100.00
44765;BME280;30484;52.382;5.260;2023-03-19T08:04:51;101402.41;;;13.98;100.00
44765;BME280;30484;52.382;5.260;2023-03-19T08:07:24;101406.97;;;13.29;100.00
44765;BME280;30484;52.382;5.260;2023-03-19T08:09:53;101399.63;;;13.51;100.00
44765;BME280;30484;52.382;5.260;2023-03-19T08:12:23;101403.50;;;13.78;100.00
44765;BME280;30484;52.382;5.260;2023-03-19T08:14:52;101402.31;;;13.84;100.00
44765;BME280;30484;52.382;5.260;2023-03-19T08:17:20;101403.78;;;13.90;100.00
44765;BME280;30484;52.382;5.260;2023-03-19T08:19:49;101409.63;;;13.64;100.00
44765;BME280;30484;52.382;5.260;2023-03-19T08:22:17;101415.38;;;13.74;100.00
44765;BME280;30484;52.382;5.260;2023-03-19T08:24:47;101410.47;;;13.98;100.00
44765;BME280;30484;52.382;5.260;2023-03-19T08:27:16;101415.47;;;13.89;100.00
44765;BME280;30484;52.382;5.260;2023-03-19T08:29:44;101421.69;;;13.73;100.00
44765;BME280;30484;52.382;5.260;2023-03-19T08:32:13;101423.63;;;13.87;100.00
44765;BME280;30484;52.382;5.260;2023-03-19T08:34:42;101421.28;;;13.81;100.00
44765;BME280;30484;52.382;5.260;2023-03-19T08:37:10;101427.34;;;14.01;100.00
44765;BME280;30484;52.382;5.260;2023-03-19T08:39:39;101433.19;;;14.09;100.00
44765;BME280;30484;52.382;5.260;2023-03-19T08:42:10;101442.19;;;14.08;100.00
44765;BME280;30484;52.382;5.260;2023-03-19T08:44:38;101444.09;;;13.39;100.00
44765;BME280;30484;52.382;5.260;2023-03-19T08:47:09;101441.38;;;13.56;100.00
44765;BME280;30484;52.382;5.260;2023-03-19T08:49:38;101452.94;;;13.58;100.00
44765;BME280;30484;52.382;5.260;2023-03-19T08:52:07;101447.91;;;14.02;100.00
44765;BME280;30484;52.382;5.260;2023-03-19T08:54:35;101456.25;;;14.13;100.00
44765;BME280;30484;52.382;5.260;2023-03-19T08:57:04;101457.06;;;13.97;100.00
44765;BME280;30484;52.382;5.260;2023-03-19T08:59:34;101464.41;;;14.27;100.00
44765;BME280;30484;52.382;5.260;2023-03-19T09:02:03;101448.91;;;13.83;100.00
44765;BME280;30484;52.382;5.260;2023-03-19T09:04:31;101466.50;;;14.38;100.00
44765;BME280;30484;52.382;5.260;2023-03-19T09:07:03;101463.91;;;14.37;100.00
44765;BME280;30484;52.382;5.260;2023-03-19T09:09:32;101468.91;;;14.43;100.00
44765;BME280;30484;52.382;5.260;2023-03-19T09:12:01;101464.31;;;14.45;100.00
44765;BME280;30484;52.382;5.260;2023-03-19T09:14:30;101471.47;;;13.96;100.00
44765;BME280;30484;52.382;5.260;2023-03-19T09:17:01;101475.16;;;14.27;100.00
44765;BME280;30484;52.382;5.260;2023-03-19T09:19:29;101468.72;;;14.14;100.00
44765;BME280;30484;52.382;5.260;2023-03-19T09:21:59;101471.69;;;14.41;100.00
44765;BME280;30484;52.382;5.260;2023-03-19T09:24:28;101477.84;;;14.27;100.00
44765;BME280;30484;52.382;5.260;2023-03-19T09:26:56;101480.03;;;14.69;100.00
44765;BME280;30484;52.382;5.260;2023-03-19T09:29:24;101483.16;;;14.77;100.00
44765;BME280;30484;52.382;5.260;2023-03-19T09:31:52;101481.41;;;14.76;100.00
44765;BME280;30484;52.382;5.260;2023-03-19T09:34:23;101484.25;;;14.89;100.00
44765;BME280;30484;52.382;5.260;2023-03-19T09:36:51;101481.81;;;15.00;100.00
44765;BME280;30484;52.382;5.260;2023-03-19T09:39:20;101486.50;;;15.27;100.00
44765;BME280;30484;52.382;5.260;2023-03-19T09:41:59;101494.69;;;14.79;100.00
44765;BME280;30484;52.382;5.260;2023-03-19T09:44:33;101499.38;;;15.22;100.00
44765;BME280;30484;52.382;5.260;2023-03-19T09:47:21;101501.88;;;15.55;100.00
44765;BME280;30484;52.382;5.260;2023-03-19T09:49:55;101502.81;;;15.54;100.00
44765;BME280;30484;52.382;5.260;2023-03-19T09:52:41;101507.63;;;15.49;100.00
44765;BME280;30484;52.382;5.260;2023-03-19T09:55:26;101506.72;;;15.79;100.00
44765;BME280;30484;52.382;5.260;2023-03-19T09:57:58;101509.38;;;15.95;100.00
44765;BME280;30484;52.382;5.260;2023-03-19T10:00:32;101512.97;;;15.65;100.00
44765;BME280;30484;52.382;5.260;2023-03-19T10:03:07;101517.75;;;15.60;100.00
44765;BME280;30484;52.382;5.260;2023-03-19T10:05:48;101518.50;;;15.62;100.00
44765;BME280;30484;52.382;5.260;2023-03-19T10:08:40;101520.06;;;15.66;100.00
44765;BME280;30484;52.382;5.260;2023-03-19T10:11:33;101518.63;;;15.75;100.00
44765;BME280;30484;52.382;5.260;2023-03-19T10:14:22;101525.19;;;15.70;100.00
44765;BME280;30484;52.382;5.260;2023-03-19T10:16:56;101514.66;;;15.96;100.00
44765;BME280;30484;52.382;5.260;2023-03-19T10:19:36;101526.78;;;15.89;100.00
44765;BME280;30484;52.382;5.260;2023-03-19T10:22:14;101517.56;;;16.08;100.00
44765;BME280;30484;52.382;5.260;2023-03-19T10:24:45;101530.13;;;15.17;100.00
44765;BME280;30484;52.382;5.260;2023-03-19T10:27:18;101535.56;;;14.86;100.00
44765;BME280;30484;52.382;5.260;2023-03-19T10:29:47;101536.56;;;15.45;100.00
44765;BME280;30484;52.382;5.260;2023-03-19T10:32:19;101532.47;;;15.24;100.00
44765;BME280;30484;52.382;5.260;2023-03-19T10:34:51;101516.69;;;15.48;100.00
44765;BME280;30484;52.382;5.260;2023-03-19T10:37:24;101526.03;;;15.57;100.00
44765;BME280;30484;52.382;5.260;2023-03-19T10:39:56;101529.69;;;16.00;100.00
44765;BME280;30484;52.382;5.260;2023-03-19T10:42:43;101534.88;;;16.03;100.00
44765;BME280;30484;52.382;5.260;2023-03-19T10:45:23;101543.41;;;15.81;100.00
44765;BME280;30484;52.382;5.260;2023-03-19T10:47:55;101542.09;;;15.73;100.00
44765;BME280;30484;52.382;5.260;2023-03-19T10:50:30;101543.84;;;15.74;100.00
44765;BME280;30484;52.382;5.260;2023-03-19T10:53:28;101549.31;;;16.17;100.00
44765;BME280;30484;52.382;5.260;2023-03-19T10:56:02;101543.13;;;15.86;100.00
44765;BME280;30484;52.382;5.260;2023-03-19T10:58:33;101549.03;;;15.77;100.00
44765;BME280;30484;52.382;5.260;2023-03-19T11:01:06;101548.41;;;15.57;100.00
44765;BME280;30484;52.382;5.260;2023-03-19T11:03:37;101544.41;;;15.64;100.00
44765;BME280;30484;52.382;5.260;2023-03-19T11:06:17;101538.69;;;15.54;100.00
44765;BME280;30484;52.382;5.260;2023-03-19T11:08:57;101541.97;;;15.45;100.00
44765;BME280;30484;52.382;5.260;2023-03-19T11:11:33;101532.84;;;16.07;100.00
44765;BME280;30484;52.382;5.260;2023-03-19T11:14:08;101543.41;;;16.53;100.00
44765;BME280;30484;52.382;5.260;2023-03-19T11:16:49;101540.25;;;16.03;100.00
44765;BME280;30484;52.382;5.260;2023-03-19T11:19:21;101540.47;;;16.15;100.00
44765;BME280;30484;52.382;5.260;2023-03-19T11:22:02;101539.38;;;16.46;100.00
44765;BME280;30484;52.382;5.260;2023-03-19T11:24:39;101543.00;;;16.60;100.00
44765;BME280;30484;52.382;5.260;2023-03-19T11:27:09;101542.13;;;16.73;100.00
44765;BME280;30484;52.382;5.260;2023-03-19T11:29:41;101544.91;;;16.72;100.00
44765;BME280;30484;52.382;5.260;2023-03-19T11:35:22;101553.25;;;16.26;100.00
44765;BME280;30484;52.382;5.260;2023-03-19T11:37:54;101554.84;;;16.57;100.00
44765;BME280;30484;52.382;5.260;2023-03-19T11:40:35;101563.72;;;16.59;100.00
44765;BME280;30484;52.382;5.260;2023-03-19T11:43:30;101563.50;;;16.91;100.00
44765;BME280;30484;52.382;5.260;2023-03-19T11:46:15;101555.47;;;16.19;100.00
44765;BME280;30484;52.382;5.260;2023-03-19T11:49:12;101561.47;;;16.66;100.00
44765;BME280;30484;52.382;5.260;2023-03-19T11:51:48;101565.25;;;16.49;100.00
44765;BME280;30484;52.382;5.260;2023-03-19T11:54:25;101565.75;;;16.55;100.00
44765;BME280;30484;52.382;5.260;2023-03-19T11:57:03;101561.84;;;16.74;100.00
44765;BME280;30484;52.382;5.260;2023-03-19T12:05:56;101563.50;;;16.91;100.00
44765;BME280;30484;52.382;5.260;2023-03-19T12:08:35;101559.06;;;16.76;100.00
44765;BME280;30484;52.382;5.260;2023-03-19T12:11:16;101572.59;;;16.03;100.00
44765;BME280;30484;52.382;5.260;2023-03-19T12:14:05;101558.22;;;16.61;100.00
44765;BME280;30484;52.382;5.260;2023-03-19T12:16:50;101567.03;;;17.06;100.00
44765;BME280;30484;52.382;5.260;2023-03-19T12:19:36;101572.50;;;16.48;100.00
44765;BME280;30484;52.382;5.260;2023-03-19T12:22:22;101577.34;;;16.99;100.00
44765;BME280;30484;52.382;5.260;2023-03-19T12:27:54;101585.19;;;17.17;100.00
44765;BME280;30484;52.382;5.260;2023-03-19T12:30:33;101577.16;;;17.02;100.00
44765;BME280;30484;52.382;5.260;2023-03-19T12:33:16;101586.53;;;16.82;100.00
44765;BME280;30484;52.382;5.260;2023-03-19T12:35:52;101581.66;;;17.16;100.00
44765;BME280;30484;52.382;5.260;2023-03-19T12:38:36;101573.69;;;16.86;100.00
44765;BME280;30484;52.382;5.260;2023-03-19T12:41:11;101582.69;;;16.72;100.00
44765;BME280;30484;52.382;5.260;2023-03-19T12:43:48;101585.69;;;16.10;100.00
44765;BME280;30484;52.382;5.260;2023-03-19T12:46:26;101577.00;;;15.90;100.00
44765;BME280;30484;52.382;5.260;2023-03-19T12:49:00;101583.00;;;16.24;100.00
44765;BME280;30484;52.382;5.260;2023-03-19T12:51:34;101588.88;;;16.45;100.00
44765;BME280;30484;52.382;5.260;2023-03-19T12:54:17;101581.16;;;16.10;100.00
44765;BME280;30484;52.382;5.260;2023-03-19T12:56:53;101591.09;;;16.10;100.00
44765;BME280;30484;52.382;5.260;2023-03-19T12:59:29;101599.84;;;16.71;100.00
44765;BME280;30484;52.382;5.260;2023-03-19T13:02:11;101601.66;;;15.98;100.00
44765;BME280;30484;52.382;5.260;2023-03-19T13:04:50;101604.66;;;16.80;100.00
44765;BME280;30484;52.382;5.260;2023-03-19T13:07:25;101594.09;;;16.19;100.00
44765;BME280;30484;52.382;5.260;2023-03-19T13:10:04;101605.72;;;16.20;100.00
44765;BME280;30484;52.382;5.260;2023-03-19T13:12:35;101614.81;;;16.48;100.00
44765;BME280;30484;52.382;5.260;2023-03-19T13:15:09;101606.13;;;16.28;100.00